sensor_id;sensor_type;location;lat;lon;timestamp;pressure;altitude;pressure_sealevel;temperature;humidity
38786;BME280;24535;45.508;12.252;2023-03-13T00:01:22;101832.13;;;11.89;56.81
38786;BME280;24535;45.508;12.252;2023-03-13T00:03:48;101833.25;;;11.85;56.75
38786;BME280;24535;45.508;12.252;2023-03-13T00:06:14;101841.38;;;11.80;56.80
38786;BME280;24535;45.508;12.252;2023-03-13T00:08:41;101846.56;;;11.82;56.79
38786;BME280;24535;45.508;12.252;2023-03-13T00:11:08;101843.19;;;11.80;57.42
38786;BME280;24535;45.508;12.252;2023-03-13T00:13:34;101841.69;;;11.74;56.90
38786;BME280;24535;45.508;12.252;2023-03-13T00:16:11;101841.78;;;11.73;57.47
38786;BME280;24535;45.508;12.252;2023-03-13T00:18:37;101839.31;;;11.70;57.14
38786;BME280;24535;45.508;12.252;2023-03-13T00:21:05;101833.28;;;11.68;57.24
38786;BME280;24535;45.508;12.252;2023-03-13T00:23:32;101842.03;;;11.68;57.79
38786;BME280;24535;45.508;12.252;2023-03-13T00:25:59;101847.31;;;11.68;57.89
38786;BME280;24535;45.508;12.252;2023-03-13T00:28:30;101845.38;;;11.72;57.83
38786;BME280;24535;45.508;12.252;2023-03-13T00:31:08;101848.88;;;11.72;58.00
38786;BME280;24535;45.508;12.252;2023-03-13T00:33:36;101852.34;;;11.73;57.57
38786;BME280;24535;45.508;12.252;2023-03-13T00:36:05;101845.44;;;11.70;57.80
38786;BME280;24535;45.508;12.252;2023-03-13T00:38:31;101854.84;;;11.76;57.65
38786;BME280;24535;45.508;12.252;2023-03-13T00:41:04;101854.00;;;11.75;58.25
38786;BME280;24535;45.508;12.252;2023-03-13T00:43:30;101857.31;;;11.79;57.93
38786;BME280;24535;45.508;12.252;2023-03-13T00:45:56;101860.63;;;11.82;57.61
38786;BME280;24535;45.508;12.252;2023-03-13T00:48:22;101858.06;;;11.81;57.59
38786;BME280;24535;45.508;12.252;2023-03-13T00:50:48;101865.06;;;11.82;56.80
38786;BME280;24535;45.508;12.252;2023-03-13T00:53:14;101868.94;;;11.75;57.26
38786;BME280;24535;45.508;12.252;2023-03-13T00:55:59;101863.31;;;11.65;56.76
38786;BME280;24535;45.508;12.252;2023-03-13T00:58:29;101871.63;;;11.57;57.05
38786;BME280;24535;45.508;12.252;2023-03-13T01:00:55;101862.34;;;11.50;57.06
38786;BME280;24535;45.508;12.252;2023-03-13T01:03:23;101863.38;;;11.48;57.67
38786;BME280;24535;45.508;12.252;2023-03-13T01:05:59;101856.59;;;11.42;57.31
38786;BME280;24535;45.508;12.252;2023-03-13T01:08:25;101851.66;;;11.36;56.98
38786;BME280;24535;45.508;12.252;2023-03-13T01:10:57;101852.84;;;11.30;57.38
38786;BME280;24535;45.508;12.252;2023-03-13T01:13:27;101854.78;;;11.27;57.17
38786;BME280;24535;45.508;12.252;2023-03-13T01:15:52;101843.69;;;11.20;57.54
38786;BME280;24535;45.508;12.252;2023-03-13T01:18:18;101846.47;;;11.17;57.59
38786;BME280;24535;45.508;12.252;2023-03-13T01:20:43;101845.88;;;11.12;57.91
38786;BME280;24535;45.508;12.252;2023-03-13T01:23:09;101839.91;;;11.08;58.01
38786;BME280;24535;45.508;12.252;2023-03-13T01:25:37;101841.06;;;11.03;57.99
38786;BME280;24535;45.508;12.252;2023-03-13T01:28:04;101834.16;;;11.00;57.98
38786;BME280;24535;45.508;12.252;2023-03-13T01:30:29;101836.03;;;10.98;58.21
38786;BME280;24535;45.508;12.252;2023-03-13T01:32:55;101823.94;;;10.94;58.22
38786;BME280;24535;45.508;12.252;2023-03-13T01:35:20;101829.28;;;10.93;58.70
38786;BME280;24535;45.508;12.252;2023-03-13T01:37:45;101827.59;;;10.92;58.43
38786;BME280;24535;45.508;12.252;2023-03-13T01:40:11;101828.56;;;10.89;58.50
38786;BME280;24535;45.508;12.252;2023-03-13T01:42:57;101820.66;;;10.89;59.70
38786;BME280;24535;45.508;12.252;2023-03-13T01:51:08;101796.03;;;10.90;59.07
38786;BME280;24535;45.508;12.252;2023-03-13T01:53:36;101796.78;;;10.92;59.29
38786;BME280;24535;45.508;12.252;2023-03-13T01:56:13;101800.97;;;10.96;59.35
38786;BME280;24535;45.508;12.252;2023-03-13T01:58:41;101799.19;;;10.97;58.81
38786;BME280;24535;45.508;12.252;2023-03-13T02:01:08;101797.41;;;10.97;58.81
38786;BME280;24535;45.508;12.252;2023-03-13T02:03:34;101805.16;;;11.00;59.44
38786;BME280;24535;45.508;12.252;2023-03-13T02:06:01;101810.34;;;11.02;58.50
38786;BME280;24535;45.508;12.252;2023-03-13T02:08:38;101799.66;;;11.05;58.75
38786;BME280;24535;45.508;12.252;2023-03-13T02:11:12;101811.97;;;11.04;58.88
38786;BME280;24535;45.508;12.252;2023-03-13T02:13:43;101805.88;;;11.04;58.42
38786;BME280;24535;45.508;12.252;2023-03-13T02:16:09;101801.53;;;11.03;58.80
38786;BME280;24535;45.508;12.252;2023-03-13T02:18:35;101795.41;;;11.02;58.20
38786;BME280;24535;45.508;12.252;2023-03-13T02:21:15;101801.44;;;11.04;58.37
38786;BME280;24535;45.508;12.252;2023-03-13T02:23:56;101798.03;;;11.02;58.59
38786;BME280;24535;45.508;12.252;2023-03-13T02:26:23;101795.41;;;11.02;58.39
38786;BME280;24535;45.508;12.252;2023-03-13T02:28:54;101798.91;;;11.03;58.38
38786;BME280;24535;45.508;12.252;2023-03-13T02:31:19;101798.03;;;11.02;58.22
38786;BME280;24535;45.508;12.252;2023-03-13T02:33:45;101791.03;;;11.01;57.95
38786;BME280;24535;45.508;12.252;2023-03-13T02:36:12;101803.38;;;11.01;57.89
38786;BME280;24535;45.508;12.252;2023-03-13T02:38:50;101800.84;;;10.99;57.68
38786;BME280;24535;45.508;12.252;2023-03-13T02:41:18;101811.38;;;10.99;57.64
38786;BME280;24535;45.508;12.252;2023-03-13T02:43:44;101811.38;;;10.99;57.79
38786;BME280;24535;45.508;12.252;2023-03-13T02:46:16;101804.22;;;11.01;57.98
38786;BME280;24535;45.508;12.252;2023-03-13T02:48:50;101812.78;;;11.06;57.77
38786;BME280;24535;45.508;12.252;2023-03-13T02:51:33;101801.34;;;11.06;57.92
38786;BME280;24535;45.508;12.252;2023-03-13T02:54:11;101789.88;;;11.07;57.38
38786;BME280;24535;45.508;12.252;2023-03-13T02:56:40;101789.94;;;11.05;58.01
38786;BME280;24535;45.508;12.252;2023-03-13T02:59:07;101803.84;;;11.09;57.23
38786;BME280;24535;45.508;12.252;2023-03-13T03:01:35;101809.91;;;11.11;57.71
38786;BME280;24535;45.508;12.252;2023-03-13T03:04:00;101813.44;;;11.10;57.60
38786;BME280;24535;45.508;12.252;2023-03-13T03:06:25;101819.50;;;11.12;57.36
38786;BME280;24535;45.508;12.252;2023-03-13T03:08:53;101820.28;;;11.14;57.47
38786;BME280;24535;45.508;12.252;2023-03-13T03:11:19;101821.19;;;11.13;56.86
38786;BME280;24535;45.508;12.252;2023-03-13T03:13:50;101818.72;;;11.10;56.81
38786;BME280;24535;45.508;12.252;2023-03-13T03:16:15;101811.84;;;11.07;57.07
38786;BME280;24535;45.508;12.252;2023-03-13T03:18:44;101813.06;;;11.00;56.67
38786;BME280;24535;45.508;12.252;2023-03-13T03:21:10;101819.34;;;10.98;56.73
38786;BME280;24535;45.508;12.252;2023-03-13T03:23:36;101810.13;;;10.89;56.82
38786;BME280;24535;45.508;12.252;2023-03-13T03:26:03;101818.28;;;10.84;57.22
38786;BME280;24535;45.508;12.252;2023-03-13T03:28:29;101823.53;;;10.84;57.23
38786;BME280;24535;45.508;12.252;2023-03-13T03:30:55;101827.03;;;10.85;57.22
38786;BME280;24535;45.508;12.252;2023-03-13T03:33:22;101819.22;;;10.83;56.75
38786;BME280;24535;45.508;12.252;2023-03-13T03:35:49;101820.28;;;10.79;56.61
38786;BME280;24535;45.508;12.252;2023-03-13T03:38:15;101814.47;;;10.73;56.49
38786;BME280;24535;45.508;12.252;2023-03-13T03:40:40;101807.72;;;10.67;56.65
38786;BME280;24535;45.508;12.252;2023-03-13T03:43:05;101806.19;;;10.63;56.45
38786;BME280;24535;45.508;12.252;2023-03-13T03:45:31;101802.00;;;10.59;56.90
38786;BME280;24535;45.508;12.252;2023-03-13T03:47:56;101798.66;;;10.55;56.96
38786;BME280;24535;45.508;12.252;2023-03-13T03:50:24;101801.53;;;10.51;57.08
38786;BME280;24535;45.508;12.252;2023-03-13T03:52:50;101815.63;;;10.50;57.93
38786;BME280;24535;45.508;12.252;2023-03-13T03:55:18;101816.53;;;10.49;57.26
38786;BME280;24535;45.508;12.252;2023-03-13T03:57:44;101809.56;;;10.48;57.66
38786;BME280;24535;45.508;12.252;2023-03-13T04:00:12;101809.56;;;10.48;57.50
38786;BME280;24535;45.508;12.252;2023-03-13T04:02:40;101820.09;;;10.48;57.42
38786;BME280;24535;45.508;12.252;2023-03-13T04:05:06;101823.44;;;10.51;57.74
38786;BME280;24535;45.508;12.252;2023-03-13T04:07:31;101817.19;;;10.54;57.83
38786;BME280;24535;45.508;12.252;2023-03-13T04:09:57;101807.56;;;10.53;57.43
38786;BME280;24535;45.508;12.252;2023-03-13T04:12:22;101798.88;;;10.51;57.18
38786;BME280;24535;45.508;12.252;2023-03-13T04:14:47;101790.38;;;10.46;57.73
38786;BME280;24535;45.508;12.252;2023-03-13T04:17:13;101796.78;;;10.40;57.77
38786;BME280;24535;45.508;12.252;2023-03-13T04:19:38;101796.06;;;10.36;57.96
38786;BME280;24535;45.508;12.252;2023-03-13T04:22:04;101791.81;;;10.34;58.04
38786;BME280;24535;45.508;12.252;2023-03-13T04:24:29;101803.91;;;10.38;58.14
38786;BME280;24535;45.508;12.252;2023-03-13T04:26:55;101808.25;;;10.39;58.05
38786;BME280;24535;45.508;12.252;2023-03-13T04:29:20;101804.75;;;10.38;57.72
38786;BME280;24535;45.508;12.252;2023-03-13T04:31:45;101823.09;;;10.40;57.93
38786;BME280;24535;45.508;12.252;2023-03-13T04:34:11;101824.91;;;10.39;57.88
38786;BME280;24535;45.508;12.252;2023-03-13T04:36:37;101822.25;;;10.39;57.58
38786;BME280;24535;45.508;12.252;2023-03-13T04:39:02;101822.25;;;10.39;58.55
38786;BME280;24535;45.508;12.252;2023-03-13T04:41:28;101839.56;;;10.45;58.99
38786;BME280;24535;45.508;12.252;2023-03-13T04:43:53;101836.63;;;10.51;58.68
38786;BME280;24535;45.508;12.252;2023-03-13T04:46:19;101835.63;;;10.54;58.16
38786;BME280;24535;45.508;12.252;2023-03-13T04:48:44;101839.59;;;10.62;58.60
38786;BME280;24535;45.508;12.252;2023-03-13T04:51:11;101835.63;;;10.71;58.74
38786;BME280;24535;45.508;12.252;2023-03-13T04:53:36;101843.22;;;10.77;58.77
38786;BME280;24535;45.508;12.252;2023-03-13T04:56:02;101847.41;;;10.81;58.22
38786;BME280;24535;45.508;12.252;2023-03-13T04:58:27;101848.22;;;10.83;58.00
38786;BME280;24535;45.508;12.252;2023-03-13T05:00:53;101860.38;;;10.86;58.39
38786;BME280;24535;45.508;12.252;2023-03-13T05:03:19;101858.50;;;10.88;58.21
38786;BME280;24535;45.508;12.252;2023-03-13T05:05:44;101863.78;;;10.88;58.42
38786;BME280;24535;45.508;12.252;2023-03-13T05:08:10;101854.19;;;10.87;57.71
38786;BME280;24535;45.508;12.252;2023-03-13T05:10:35;101857.34;;;10.94;58.93
38786;BME280;24535;45.508;12.252;2023-03-13T05:13:01;101861.63;;;10.96;58.73
38786;BME280;24535;45.508;12.252;2023-03-13T05:15:26;101878.22;;;10.98;58.34
38786;BME280;24535;45.508;12.252;2023-03-13T05:17:52;101877.19;;;11.01;58.10
38786;BME280;24535;45.508;12.252;2023-03-13T05:20:17;101870.09;;;11.03;58.32
38786;BME280;24535;45.508;12.252;2023-03-13T05:22:43;101874.31;;;11.05;58.43
38786;BME280;24535;45.508;12.252;2023-03-13T05:25:08;101877.75;;;11.07;58.31
38786;BME280;24535;45.508;12.252;2023-03-13T05:27:37;101866.34;;;11.07;58.22
38786;BME280;24535;45.508;12.252;2023-03-13T05:30:02;101870.78;;;11.06;58.38
38786;BME280;24535;45.508;12.252;2023-03-13T05:32:28;101865.66;;;11.03;57.79
38786;BME280;24535;45.508;12.252;2023-03-13T05:34:53;101867.50;;;11.01;58.13
38786;BME280;24535;45.508;12.252;2023-03-13T05:37:19;101862.47;;;10.97;58.22
38786;BME280;24535;45.508;12.252;2023-03-13T05:39:44;101869.53;;;10.96;58.26
38786;BME280;24535;45.508;12.252;2023-03-13T05:42:09;101867.03;;;10.93;58.77
38786;BME280;24535;45.508;12.252;2023-03-13T05:44:35;101861.00;;;10.91;58.81
38786;BME280;24535;45.508;12.252;2023-03-13T05:47:00;101866.34;;;10.89;58.91
38786;BME280;24535;45.508;12.252;2023-03-13T05:49:26;101871.41;;;10.94;59.20
38786;BME280;24535;45.508;12.252;2023-03-13T05:51:51;101882.56;;;10.99;59.67
38786;BME280;24535;45.508;12.252;2023-03-13T05:54:16;101887.22;;;11.11;59.75
38786;BME280;24535;45.508;12.252;2023-03-13T05:56:42;101877.88;;;11.22;59.60
38786;BME280;24535;45.508;12.252;2023-03-13T05:59:09;101877.69;;;11.26;59.01
38786;BME280;24535;45.508;12.252;2023-03-13T06:01:34;101872.41;;;11.26;58.69
38786;BME280;24535;45.508;12.252;2023-03-13T06:03:59;101881.94;;;11.29;58.62
38786;BME280;24535;45.508;12.252;2023-03-13T06:06:25;101874.97;;;11.28;58.68
38786;BME280;24535;45.508;12.252;2023-03-13T06:08:51;101874.25;;;11.24;58.79
38786;BME280;24535;45.508;12.252;2023-03-13T06:11:17;101869.06;;;11.23;58.98
38786;BME280;24535;45.508;12.252;2023-03-13T06:13:43;101869.22;;;11.20;58.19
38786;BME280;24535;45.508;12.252;2023-03-13T06:16:08;101873.66;;;11.19;58.79
38786;BME280;24535;45.508;12.252;2023-03-13T06:18:35;101873.72;;;11.18;59.21
38786;BME280;24535;45.508;12.252;2023-03-13T06:21:01;101865.78;;;11.18;59.31
38786;BME280;24535;45.508;12.252;2023-03-13T06:23:26;101864.88;;;11.19;59.34
38786;BME280;24535;45.508;12.252;2023-03-13T06:25:53;101868.22;;;11.22;59.81
38786;BME280;24535;45.508;12.252;2023-03-13T06:28:18;101863.69;;;11.24;59.50
38786;BME280;24535;45.508;12.252;2023-03-13T06:30:44;101854.84;;;11.25;59.13
38786;BME280;24535;45.508;12.252;2023-03-13T06:33:10;101867.13;;;11.26;59.25
38786;BME280;24535;45.508;12.252;2023-03-13T06:35:39;101871.38;;;11.29;59.61
38786;BME280;24535;45.508;12.252;2023-03-13T06:38:05;101869.53;;;11.31;59.49
38786;BME280;24535;45.508;12.252;2023-03-13T06:40:30;101867.75;;;11.31;59.57
38786;BME280;24535;45.508;12.252;2023-03-13T06:42:56;101864.06;;;11.34;59.70
38786;BME280;24535;45.508;12.252;2023-03-13T06:45:21;101855.94;;;11.38;59.59
38786;BME280;24535;45.508;12.252;2023-03-13T06:47:46;101856.78;;;11.39;59.59
38786;BME280;24535;45.508;12.252;2023-03-13T06:50:13;101849.03;;;11.36;59.68
38786;BME280;24535;45.508;12.252;2023-03-13T06:52:38;101840.31;;;11.34;60.05
38786;BME280;24535;45.508;12.252;2023-03-13T06:55:04;101843.84;;;11.34;60.00
38786;BME280;24535;45.508;12.252;2023-03-13T06:57:30;101845.59;;;11.34;60.28
38786;BME280;24535;45.508;12.252;2023-03-13T06:59:58;101848.25;;;11.34;60.67
38786;BME280;24535;45.508;12.252;2023-03-13T07:02:23;101857.53;;;11.41;60.75
38786;BME280;24535;45.508;12.252;2023-03-13T07:04:48;101852.03;;;11.46;60.25
38786;BME280;24535;45.508;12.252;2023-03-13T07:07:14;101860.63;;;11.49;60.52
38786;BME280;24535;45.508;12.252;2023-03-13T07:09:39;101862.88;;;11.57;61.12
38786;BME280;24535;45.508;12.252;2023-03-13T07:12:05;101869.53;;;11.64;60.81
38786;BME280;24535;45.508;12.252;2023-03-13T07:14:33;101874.41;;;11.72;60.07
38786;BME280;24535;45.508;12.252;2023-03-13T07:17:01;101873.91;;;11.81;60.26
38786;BME280;24535;45.508;12.252;2023-03-13T07:19:26;101868.84;;;11.94;60.66
38786;BME280;24535;45.508;12.252;2023-03-13T07:21:52;101857.72;;;12.04;59.89
38786;BME280;24535;45.508;12.252;2023-03-13T07:24:18;101868.53;;;12.16;60.36
38786;BME280;24535;45.508;12.252;2023-03-13T07:26:44;101877.66;;;12.26;60.05
38786;BME280;24535;45.508;12.252;2023-03-13T07:29:10;101874.69;;;12.32;59.28
38786;BME280;24535;45.508;12.252;2023-03-13T07:31:35;101875.25;;;12.37;59.20
38786;BME280;24535;45.508;12.252;2023-03-13T07:34:01;101868.72;;;12.44;59.42
38786;BME280;24535;45.508;12.252;2023-03-13T07:36:27;101874.75;;;12.46;59.44
38786;BME280;24535;45.508;12.252;2023-03-13T07:39:12;101874.47;;;12.51;58.54
38786;BME280;24535;45.508;12.252;2023-03-13T07:41:38;101873.63;;;12.50;58.96
38786;BME280;24535;45.508;12.252;2023-03-13T07:44:03;101873.09;;;12.59;59.35
38786;BME280;24535;45.508;12.252;2023-03-13T10:11:26;101824.25;;;18.99;46.24
38786;BME280;24535;45.508;12.252;2023-03-13T10:16:26;101820.53;;;19.11;46.88
38786;BME280;24535;45.508;12.252;2023-03-13T10:18:57;101817.47;;;19.16;46.52
38786;BME280;24535;45.508;12.252;2023-03-13T10:21:26;101815.53;;;19.18;46.45
38786;BME280;24535;45.508;12.252;2023-03-13T10:24:01;101817.47;;;19.16;45.43
38786;BME280;24535;45.508;12.252;2023-03-13T10:26:32;101810.44;;;19.15;44.49
38786;BME280;24535;45.508;12.252;2023-03-13T10:29:10;101816.03;;;19.12;43.51
38786;BME280;24535;45.508;12.252;2023-03-13T10:31:38;101810.81;;;19.00;44.32
38786;BME280;24535;45.508;12.252;2023-03-13T10:34:08;101813.63;;;18.88;44.42
38786;BME280;24535;45.508;12.252;2023-03-13T10:36:56;101803.88;;;18.77;43.58
38786;BME280;24535;45.508;12.252;2023-03-13T10:39:23;101804.50;;;18.69;44.29
38786;BME280;24535;45.508;12.252;2023-03-13T10:41:50;101805.16;;;18.62;44.99
38786;BME280;24535;45.508;12.252;2023-03-13T10:44:21;101803.00;;;18.56;44.67
38786;BME280;24535;45.508;12.252;2023-03-13T10:46:49;101800.44;;;18.54;44.89
38786;BME280;24535;45.508;12.252;2023-03-13T10:49:17;101795.50;;;18.49;45.01
38786;BME280;24535;45.508;12.252;2023-03-13T10:51:47;101794.91;;;18.46;44.67
38786;BME280;24535;45.508;12.252;2023-03-13T10:54:13;101784.63;;;18.41;44.04
38786;BME280;24535;45.508;12.252;2023-03-13T10:56:40;101784.03;;;18.38;44.49
38786;BME280;24535;45.508;12.252;2023-03-13T10:59:21;101779.22;;;18.32;43.37
38786;BME280;24535;45.508;12.252;2023-03-13T11:01:47;101782.22;;;18.27;43.78
38786;BME280;24535;45.508;12.252;2023-03-13T11:04:34;101771.25;;;18.20;43.78
38786;BME280;24535;45.508;12.252;2023-03-13T11:07:13;101775.25;;;18.15;44.40
38786;BME280;24535;45.508;12.252;2023-03-13T11:09:40;101778.44;;;18.09;44.06
38786;BME280;24535;45.508;12.252;2023-03-13T11:12:23;101769.97;;;18.03;42.91
38786;BME280;24535;45.508;12.252;2023-03-13T11:14:55;101773.59;;;18.02;44.23
38786;BME280;24535;45.508;12.252;2023-03-13T11:17:37;101778.34;;;17.99;43.90
38786;BME280;24535;45.508;12.252;2023-03-13T11:20:23;101773.13;;;17.97;44.54
38786;BME280;24535;45.508;12.252;2023-03-13T11:23:19;101772.66;;;17.92;44.58
38786;BME280;24535;45.508;12.252;2023-03-13T11:28:27;101781.88;;;17.88;44.02
38786;BME280;24535;45.508;12.252;2023-03-13T11:31:08;101773.88;;;17.88;43.73
38786;BME280;24535;45.508;12.252;2023-03-13T11:33:53;101762.38;;;17.88;44.81
38786;BME280;24535;45.508;12.252;2023-03-13T11:37:02;101743.94;;;17.85;43.95
38786;BME280;24535;45.508;12.252;2023-03-13T11:44:45;101737.16;;;17.81;43.33
38786;BME280;24535;45.508;12.252;2023-03-13T11:52:24;101740.22;;;17.76;44.36
38786;BME280;24535;45.508;12.252;2023-03-13T11:55:17;101734.25;;;17.72;44.11
38786;BME280;24535;45.508;12.252;2023-03-13T12:01:02;101732.34;;;17.63;42.73
38786;BME280;24535;45.508;12.252;2023-03-13T12:06:45;101712.84;;;17.51;42.85
38786;BME280;24535;45.508;12.252;2023-03-13T12:17:52;101701.13;;;17.43;43.23
38786;BME280;24535;45.508;12.252;2023-03-13T12:20:24;101700.38;;;17.41;43.74
38786;BME280;24535;45.508;12.252;2023-03-13T12:22:59;101708.28;;;17.42;42.47
38786;BME280;24535;45.508;12.252;2023-03-13T12:25:39;101709.22;;;17.41;43.30
38786;BME280;24535;45.508;12.252;2023-03-13T12:30:59;101696.41;;;17.35;43.11
38786;BME280;24535;45.508;12.252;2023-03-13T12:36:21;101687.31;;;17.38;43.78
38786;BME280;24535;45.508;12.252;2023-03-13T12:39:13;101686.47;;;17.37;43.61
38786;BME280;24535;45.508;12.252;2023-03-13T12:41:46;101680.44;;;17.35;44.12
38786;BME280;24535;45.508;12.252;2023-03-13T12:44:17;101671.59;;;17.35;44.82
38786;BME280;24535;45.508;12.252;2023-03-13T12:49:45;101661.03;;;17.33;44.87
38786;BME280;24535;45.508;12.252;2023-03-13T12:58:08;101648.25;;;17.27;45.60
38786;BME280;24535;45.508;12.252;2023-03-13T13:00:36;101653.66;;;17.25;45.66
38786;BME280;24535;45.508;12.252;2023-03-13T13:11:44;101644.13;;;17.12;45.21
38786;BME280;24535;45.508;12.252;2023-03-13T13:16:51;101653.47;;;17.06;42.33
38786;BME280;24535;45.508;12.252;2023-03-13T13:24:57;101629.16;;;16.99;40.78
38786;BME280;24535;45.508;12.252;2023-03-13T13:32:41;101626.00;;;16.94;40.96
38786;BME280;24535;45.508;12.252;2023-03-13T13:35:33;101620.91;;;16.91;40.90
38786;BME280;24535;45.508;12.252;2023-03-13T13:43:42;101614.00;;;16.89;40.80
38786;BME280;24535;45.508;12.252;2023-03-13T13:46:35;101610.75;;;16.85;41.28
38786;BME280;24535;45.508;12.252;2023-03-13T13:49:34;101610.66;;;16.87;41.18
38786;BME280;24535;45.508;12.252;2023-03-13T13:57:20;101592.72;;;16.89;41.25
38786;BME280;24535;45.508;12.252;2023-03-13T13:59:51;101592.72;;;16.89;41.62
38786;BME280;24535;45.508;12.252;2023-03-13T14:02:47;101587.41;;;16.89;40.82
38786;BME280;24535;45.508;12.252;2023-03-13T14:05:27;101578.81;;;16.85;40.45
38786;BME280;24535;45.508;12.252;2023-03-13T14:10:28;101567.59;;;16.82;40.16
38786;BME280;24535;45.508;12.252;2023-03-13T14:12:57;101574.47;;;16.84;41.18
38786;BME280;24535;45.508;12.252;2023-03-13T14:15:27;101576.41;;;16.82;41.29
38786;BME280;24535;45.508;12.252;2023-03-13T14:17:54;101581.75;;;16.82;41.80
38786;BME280;24535;45.508;12.252;2023-03-13T14:22:53;101583.44;;;16.83;43.28
38786;BME280;24535;45.508;12.252;2023-03-13T14:25:21;101576.53;;;16.80;43.22
38786;BME280;24535;45.508;12.252;2023-03-13T14:27:48;101578.09;;;16.83;43.29
38786;BME280;24535;45.508;12.252;2023-03-13T14:30:16;101571.81;;;16.84;43.72
38786;BME280;24535;45.508;12.252;2023-03-13T14:32:42;101565.50;;;16.85;43.94
38786;BME280;24535;45.508;12.252;2023-03-13T14:35:10;101558.50;;;16.84;43.95
38786;BME280;24535;45.508;12.252;2023-03-13T14:38:18;101558.50;;;16.84;44.18
38786;BME280;24535;45.508;12.252;2023-03-13T14:41:00;101560.44;;;16.82;43.83
38786;BME280;24535;45.508;12.252;2023-03-13T14:47:28;101541.31;;;16.77;44.36
38786;BME280;24535;45.508;12.252;2023-03-13T14:50:03;101564.06;;;16.81;44.10
38786;BME280;24535;45.508;12.252;2023-03-13T14:52:33;101544.13;;;16.75;45.24
38786;BME280;24535;45.508;12.252;2023-03-13T14:55:01;101538.16;;;16.72;46.02
38786;BME280;24535;45.508;12.252;2023-03-13T14:57:29;101533.94;;;16.69;46.62
38786;BME280;24535;45.508;12.252;2023-03-13T15:06:38;101519.19;;;16.54;47.14
38786;BME280;24535;45.508;12.252;2023-03-13T15:12:41;101530.22;;;16.49;47.84
38786;BME280;24535;45.508;12.252;2023-03-13T15:15:08;101526.56;;;16.50;48.34
38786;BME280;24535;45.508;12.252;2023-03-13T15:17:34;101515.09;;;16.50;49.05
38786;BME280;24535;45.508;12.252;2023-03-13T15:19:59;101517.53;;;16.53;48.82
38786;BME280;24535;45.508;12.252;2023-03-13T15:22:31;101513.88;;;16.54;49.60
38786;BME280;24535;45.508;12.252;2023-03-13T15:24:57;101510.13;;;16.56;48.96
38786;BME280;24535;45.508;12.252;2023-03-13T15:27:26;101505.41;;;16.60;49.19
38786;BME280;24535;45.508;12.252;2023-03-13T15:29:52;101506.25;;;16.61;49.77
38786;BME280;24535;45.508;12.252;2023-03-13T15:32:26;101501.91;;;16.60;50.59
38786;BME280;24535;45.508;12.252;2023-03-13T15:34:56;101506.13;;;16.62;50.36
38786;BME280;24535;45.508;12.252;2023-03-13T15:37:24;101497.31;;;16.62;50.55
38786;BME280;24535;45.508;12.252;2023-03-13T15:39:55;101506.13;;;16.62;50.39
38786;BME280;24535;45.508;12.252;2023-03-13T15:42:22;101511.09;;;16.55;50.21
38786;BME280;24535;45.508;12.252;2023-03-13T15:44:48;101504.22;;;16.53;50.17
38786;BME280;24535;45.508;12.252;2023-03-13T15:47:18;101492.13;;;16.49;50.72
38786;BME280;24535;45.508;12.252;2023-03-13T15:49:44;101486.91;;;16.47;51.22
38786;BME280;24535;45.508;12.252;2023-03-13T15:52:18;101487.88;;;16.46;51.05
38786;BME280;24535;45.508;12.252;2023-03-13T15:54:44;101471.94;;;16.46;51.71
38786;BME280;24535;45.508;12.252;2023-03-13T15:57:15;101479.78;;;16.48;51.87
38786;BME280;24535;45.508;12.252;2023-03-13T15:59:41;101484.38;;;16.46;52.04
38786;BME280;24535;45.508;12.252;2023-03-13T16:02:14;101482.56;;;16.46;52.09
38786;BME280;24535;45.508;12.252;2023-03-13T16:04:41;101478.94;;;16.47;52.13
38786;BME280;24535;45.508;12.252;2023-03-13T16:07:11;101473.63;;;16.47;51.86
38786;BME280;24535;45.508;12.252;2023-03-13T16:09:38;101470.72;;;16.50;52.10
38786;BME280;24535;45.508;12.252;2023-03-13T16:12:04;101472.53;;;16.50;52.97
38786;BME280;24535;45.508;12.252;2023-03-13T16:14:29;101464.09;;;16.45;53.01
38786;BME280;24535;45.508;12.252;2023-03-13T16:16:55;101465.53;;;16.49;52.66
38786;BME280;24535;45.508;12.252;2023-03-13T16:19:24;101455.84;;;16.48;52.70
38786;BME280;24535;45.508;12.252;2023-03-13T16:21:49;101454.03;;;16.48;52.76
38786;BME280;24535;45.508;12.252;2023-03-13T16:24:17;101466.25;;;16.51;52.62
38786;BME280;24535;45.508;12.252;2023-03-13T16:26:44;101449.69;;;16.47;53.39
38786;BME280;24535;45.508;12.252;2023-03-13T16:29:16;101463.94;;;16.46;53.66
38786;BME280;24535;45.508;12.252;2023-03-13T16:31:41;101466.84;;;16.43;53.37
38786;BME280;24535;45.508;12.252;2023-03-13T16:34:07;101470.25;;;16.45;53.25
38786;BME280;24535;45.508;12.252;2023-03-13T16:36:34;101482.34;;;16.49;53.34
38786;BME280;24535;45.508;12.252;2023-03-13T16:39:06;101469.13;;;16.48;53.01
38786;BME280;24535;45.508;12.252;2023-03-13T16:41:36;101480.50;;;16.50;53.25
38786;BME280;24535;45.508;12.252;2023-03-13T16:44:02;101469.41;;;16.45;53.85
38786;BME280;24535;45.508;12.252;2023-03-13T16:46:39;101471.19;;;16.44;53.43
38786;BME280;24535;45.508;12.252;2023-03-13T16:49:06;101459.09;;;16.40;53.23
38786;BME280;24535;45.508;12.252;2023-03-13T16:51:32;101477.50;;;16.43;53.16
38786;BME280;24535;45.508;12.252;2023-03-13T16:53:59;101469.50;;;16.43;53.33
38786;BME280;24535;45.508;12.252;2023-03-13T16:56:36;101452.56;;;16.44;53.64
38786;BME280;24535;45.508;12.252;2023-03-13T16:59:09;101452.84;;;16.41;54.11